Time;durP1;ratioP1;P1;durP2;ratioP2;P2;SDS_P1;SDS_P2;PMS_P1;PMS_P2;Temp;Humidity;BMP_temperature;BMP_pressure;BME280_temperature;BME280_humidity;BME280_pressure;Samples;Min_cycle;Max_cycle;Signal;HPM_P1;HPM_P2
2022/02/06 00:00:46;;;;;;;1.90;1.20;;;22.40;31.90;;;;;;5031387;28;20407;-78
2022/02/06 00:03:13;;;;;;;2.40;1.30;;;22.30;31.80;;;;;;5032181;28;20465;-78
2022/02/06 00:05:39;;;;;;;1.88;1.23;;;22.30;31.90;;;;;;5030924;28;20482;-77
2022/02/06 00:08:10;;;;;;;2.17;1.20;;;22.30;31.90;;;;;;5030904;28;20824;-75
2022/02/06 00:10:36;;;;;;;1.70;1.10;;;22.30;31.90;;;;;;5031672;28;20465;-75
2022/02/06 00:13:02;;;;;;;2.33;1.20;;;22.30;31.90;;;;;;5032376;28;20759;-77
2022/02/06 00:15:28;;;;;;;1.80;1.10;;;22.30;31.90;;;;;;5031890;28;20379;-76
2022/02/06 00:17:53;;;;;;;2.42;1.00;;;22.30;32.00;;;;;;5031845;28;20391;-72
2022/02/06 00:20:20;;;;;;;2.23;1.03;;;22.30;32.00;;;;;;5030426;28;20379;-73
2022/02/06 00:22:53;;;;;;;1.73;1.08;;;22.30;32.00;;;;;;5030627;28;20510;-74
2022/02/06 00:30:39;;;;;;;1.77;1.00;;;22.30;32.00;;;;;;5031307;28;20402;-69
2022/02/06 00:33:11;;;;;;;2.03;1.10;;;22.30;31.90;;;;;;5031746;28;20393;-75
2022/02/06 00:43:24;;;;;;;2.22;1.40;;;22.30;31.90;;;;;;5035838;28;20855;-77
2022/02/06 00:45:50;;;;;;;2.03;0.80;;;22.30;31.80;;;;;;5034222;28;20737;-76
2022/02/06 00:48:21;;;;;;;2.63;1.13;;;22.20;31.80;;;;;;5034383;28;20418;-70
2022/02/06 00:50:52;;;;;;;1.83;0.95;;;22.20;31.80;;;;;;5035272;28;20894;-75
2022/02/06 00:53:18;;;;;;;1.50;1.00;;;22.20;31.80;;;;;;5034367;28;20430;-77
2022/02/06 00:55:47;;;;;;;3.17;1.13;;;22.20;31.70;;;;;;5035489;28;20394;-77
2022/02/06 00:58:12;;;;;;;1.77;1.10;;;22.20;31.70;;;;;;5034384;28;20426;-77
2022/02/06 01:00:38;;;;;;;3.78;1.05;;;22.20;31.80;;;;;;5034256;28;20425;-77
2022/02/06 01:03:04;;;;;;;1.53;1.10;;;22.20;31.70;;;;;;5035343;28;20426;-77
2022/02/06 01:05:29;;;;;;;1.98;1.00;;;22.20;31.80;;;;;;5034271;28;20891;-76
2022/02/06 01:07:55;;;;;;;2.23;1.00;;;22.10;31.80;;;;;;5034010;28;20414;-76
2022/02/06 01:10:24;;;;;;;1.83;1.10;;;22.10;31.80;;;;;;5035142;28;20477;-76
2022/02/06 01:12:59;;;;;;;1.75;0.93;;;22.10;31.80;;;;;;5034014;28;20413;-76
2022/02/06 01:15:31;;;;;;;1.85;1.00;;;22.10;31.80;;;;;;5035156;28;20427;-69
2022/02/06 01:18:02;;;;;;;1.80;1.10;;;22.10;31.80;;;;;;5035082;28;20490;-76
2022/02/06 01:23:51;;;;;;;2.00;1.30;;;22.10;31.80;;;;;;5035129;28;20422;-76
2022/02/06 01:26:03;;;;;;;1.95;1.10;;;22.10;31.70;;;;;;5031881;28;20391;-76
2022/02/06 01:28:41;;;;;;;2.60;1.10;;;22.10;31.70;;;;;;5033223;28;20410;-76
2022/02/06 01:33:52;;;;;;;1.90;1.08;;;22.10;31.70;;;;;;5034609;28;20399;-76
2022/02/06 01:41:21;;;;;;;1.95;1.10;;;22.10;31.60;;;;;;5034518;28;20382;-75
2022/02/06 01:44:26;;;;;;;1.73;0.82;;;22.10;31.60;;;;;;5033179;28;20934;-74
2022/02/06 01:57:06;;;;;;;1.70;1.07;;;22.10;31.50;;;;;;5032439;28;20502;-74
2022/02/06 02:00:54;;;;;;;1.60;0.90;;;22.00;31.50;;;;;;5033965;28;20377;-77
2022/02/06 02:03:28;;;;;;;1.80;1.10;;;22.00;31.50;;;;;;5034010;28;20486;-76
2022/02/06 02:06:17;;;;;;;1.50;0.80;;;22.00;31.50;;;;;;5033789;28;20387;-69
2022/02/06 02:11:56;;;;;;;1.70;0.82;;;22.00;31.50;;;;;;5033706;28;20387;-68
2022/02/06 02:17:58;;;;;;;1.80;1.00;;;22.00;31.50;;;;;;5021757;28;20407;-70
2022/02/06 02:47:20;;;;;;;1.75;0.95;;;21.90;31.40;;;;;;5032906;28;20418;-73
2022/02/06 02:49:52;;;;;;;1.38;0.88;;;21.90;31.40;;;;;;5033473;28;20395;-74
2022/02/06 02:52:35;;;;;;;1.30;0.85;;;21.90;31.40;;;;;;5033309;28;20388;-76
2022/02/06 02:55:19;;;;;;;1.92;0.90;;;21.90;31.40;;;;;;5033225;28;20395;-75
2022/02/06 02:57:54;;;;;;;2.83;0.80;;;21.90;31.40;;;;;;5032744;28;20934;-72
2022/02/06 03:03:00;;;;;;;1.30;0.80;;;21.80;31.40;;;;;;5032762;28;20473;-76
2022/02/06 03:05:27;;;;;;;1.30;0.80;;;21.80;31.40;;;;;;5031916;28;20391;-76
2022/02/06 03:07:54;;;;;;;1.40;0.85;;;21.80;31.40;;;;;;5032000;28;20405;-74
2022/02/06 03:10:19;;;;;;;1.83;0.90;;;21.80;31.40;;;;;;5032987;28;20391;-75
2022/02/06 03:12:49;;;;;;;1.52;0.98;;;21.80;31.30;;;;;;5032508;28;20760;-75
2022/02/06 03:15:35;;;;;;;1.23;0.80;;;21.80;31.30;;;;;;5032988;28;20434;-74
2022/02/06 03:18:03;;;;;;;1.20;0.80;;;21.80;31.30;;;;;;5032011;28;20406;-74
2022/02/06 03:20:32;;;;;;;1.52;0.70;;;21.80;31.30;;;;;;5032597;28;20415;-76
2022/02/06 03:23:02;;;;;;;1.95;0.95;;;21.80;31.30;;;;;;5032829;28;20507;-76
2022/02/06 03:25:27;;;;;;;1.15;0.70;;;21.80;31.30;;;;;;5032868;28;20423;-75
2022/02/06 03:27:54;;;;;;;1.40;0.80;;;21.80;31.30;;;;;;5032725;28;20418;-76
2022/02/06 03:30:21;;;;;;;1.23;0.80;;;21.80;31.30;;;;;;5032962;28;20501;-76
2022/02/06 03:32:50;;;;;;;1.50;0.88;;;21.80;31.30;;;;;;5030924;28;20402;-74
2022/02/06 03:35:16;;;;;;;1.27;0.90;;;21.80;31.30;;;;;;5031403;28;20425;-71
2022/02/06 03:37:42;;;;;;;1.45;0.80;;;21.80;31.30;;;;;;5031096;28;20391;-73
2022/02/06 03:40:18;;;;;;;1.58;0.70;;;21.80;31.20;;;;;;5031148;28;20407;-74
2022/02/06 03:42:56;;;;;;;1.20;0.80;;;21.80;31.30;;;;;;5032016;28;21223;-74
2022/02/06 03:45:23;;;;;;;1.73;0.80;;;21.80;31.20;;;;;;5032213;28;20445;-71
2022/02/06 03:47:55;;;;;;;1.23;0.80;;;21.80;31.20;;;;;;5032298;28;20383;-74
2022/02/06 03:50:21;;;;;;;1.30;0.80;;;21.70;31.20;;;;;;5032346;28;20470;-73
2022/02/06 03:52:50;;;;;;;1.40;0.80;;;21.70;31.20;;;;;;5030582;28;20482;-70
2022/02/06 03:55:20;;;;;;;1.20;0.80;;;21.70;31.20;;;;;;5030961;28;20421;-75
2022/02/06 03:57:47;;;;;;;1.52;0.90;;;21.70;31.10;;;;;;5032290;28;20729;-73
2022/02/06 04:00:14;;;;;;;1.95;0.80;;;21.70;31.20;;;;;;5030939;28;20481;-73
2022/02/06 04:02:40;;;;;;;1.80;0.90;;;21.70;31.20;;;;;;5030410;28;20458;-75
2022/02/06 04:05:09;;;;;;;1.50;0.80;;;21.70;31.20;;;;;;5032042;28;20477;-70
2022/02/06 04:07:35;;;;;;;1.55;1.00;;;21.70;31.20;;;;;;5032070;28;20395;-73
2022/02/06 04:10:01;;;;;;;1.38;0.80;;;21.70;31.20;;;;;;5031072;28;20402;-75
2022/02/06 04:12:28;;;;;;;2.50;0.90;;;21.70;31.20;;;;;;5031983;28;21080;-76
2022/02/06 04:15:05;;;;;;;2.13;0.90;;;21.70;31.20;;;;;;5031901;28;20466;-73
2022/02/06 04:17:37;;;;;;;1.10;0.70;;;21.60;31.10;;;;;;5031784;28;20890;-75
2022/02/06 04:20:04;;;;;;;2.10;0.70;;;21.70;31.10;;;;;;5031154;28;20425;-77
2022/02/06 04:22:30;;;;;;;1.30;0.70;;;21.70;31.00;;;;;;5031557;28;20771;-77
2022/02/06 04:24:56;;;;;;;1.17;0.80;;;21.80;31.00;;;;;;5031712;28;20403;-76
2022/02/06 04:27:22;;;;;;;1.25;0.80;;;21.80;31.00;;;;;;5032113;28;20385;-75
2022/02/06 04:29:48;;;;;;;1.38;0.70;;;21.80;30.90;;;;;;5031820;28;20426;-77
2022/02/06 04:32:14;;;;;;;1.10;0.70;;;21.80;30.90;;;;;;5032031;28;20391;-73
2022/02/06 04:34:40;;;;;;;1.40;0.80;;;21.70;30.80;;;;;;5030187;28;20748;-77
2022/02/06 05:30:18;;;;;;;1.67;0.80;;;21.70;30.60;;;;;;5034897;28;20913;-71
2022/02/06 05:35:23;;;;;;;1.20;0.70;;;21.70;30.60;;;;;;5034696;28;20401;-70
2022/02/06 05:37:48;;;;;;;1.00;0.60;;;21.70;30.60;;;;;;5033479;28;20419;-73
2022/02/06 05:40:14;;;;;;;0.80;0.50;;;21.70;30.60;;;;;;5033202;28;20438;-69
2022/02/06 05:42:42;;;;;;;0.80;0.57;;;21.70;30.70;;;;;;5032603;28;20411;-70
2022/02/06 05:45:08;;;;;;;0.93;0.50;;;21.70;30.70;;;;;;5034276;28;20399;-72
2022/02/06 05:47:34;;;;;;;1.20;0.70;;;21.70;30.80;;;;;;5034301;28;20431;-69
2022/02/06 05:49:59;;;;;;;1.10;0.60;;;21.70;30.70;;;;;;5033033;28;20823;-70
2022/02/06 05:52:26;;;;;;;1.05;0.70;;;21.70;30.80;;;;;;5034124;28;20387;-70
2022/02/06 05:54:52;;;;;;;1.25;0.70;;;21.70;30.80;;;;;;5032542;28;20399;-72
2022/02/06 05:57:18;;;;;;;0.80;0.50;;;21.70;30.80;;;;;;5032947;28;20486;-70
2022/02/06 05:59:43;;;;;;;2.67;0.73;;;21.70;30.80;;;;;;5034213;28;20490;-69
2022/02/06 06:02:09;;;;;;;0.70;0.50;;;21.60;30.70;;;;;;5034069;28;20453;-71
2022/02/06 06:04:35;;;;;;;0.95;0.60;;;21.70;30.90;;;;;;5032555;28;20395;-73
2022/02/06 06:07:03;;;;;;;1.20;0.60;;;21.60;30.80;;;;;;5033955;28;20520;-74
2022/02/06 06:09:28;;;;;;;0.95;0.57;;;21.70;30.80;;;;;;5034106;28;20388;-69
2022/02/06 06:11:54;;;;;;;1.15;0.60;;;21.70;30.80;;;;;;5034164;28;20382;-73
2022/02/06 06:14:20;;;;;;;0.83;0.50;;;21.60;30.80;;;;;;5034109;28;20416;-71
2022/02/06 06:16:45;;;;;;;3.45;0.80;;;21.70;30.80;;;;;;5033781;28;20474;-77
2022/02/06 06:19:12;;;;;;;0.90;0.50;;;21.70;30.80;;;;;;5034046;28;20478;-76
2022/02/06 06:21:42;;;;;;;1.55;0.60;;;21.60;30.80;;;;;;5032852;28;20905;-77
2022/02/06 06:24:08;;;;;;;1.33;0.70;;;21.60;30.80;;;;;;5033896;28;20899;-75
2022/02/06 06:26:38;;;;;;;1.20;0.50;;;21.60;30.80;;;;;;5033639;28;20387;-71
2022/02/06 06:29:04;;;;;;;0.70;0.50;;;21.60;30.80;;;;;;5033743;28;20422;-73
2022/02/06 06:31:30;;;;;;;1.02;0.70;;;21.60;30.90;;;;;;5033127;28;20863;-77
2022/02/06 06:33:55;;;;;;;0.70;0.50;;;21.60;30.90;;;;;;5033845;28;20402;-77
2022/02/06 06:36:21;;;;;;;1.00;0.50;;;21.60;30.90;;;;;;5032612;28;20437;-77
2022/02/06 06:38:50;;;;;;;1.10;0.60;;;21.60;31.50;;;;;;5033213;28;20394;-76
2022/02/06 06:41:15;;;;;;;1.60;0.52;;;21.60;30.90;;;;;;5033471;28;20399;-69
2022/02/06 06:43:41;;;;;;;1.30;0.53;;;21.60;31.00;;;;;;5033318;28;20430;-70
2022/02/06 06:46:07;;;;;;;1.30;0.50;;;21.60;30.90;;;;;;5033095;28;20434;-75
2022/02/06 06:48:32;;;;;;;1.40;0.60;;;21.60;31.00;;;;;;5033325;28;20395;-77
2022/02/06 06:50:58;;;;;;;1.38;0.50;;;21.60;31.00;;;;;;5032828;28;20391;-68
2022/02/06 06:53:24;;;;;;;0.90;0.50;;;21.50;30.80;;;;;;5033140;28;20388;-69
2022/02/06 06:55:57;;;;;;;1.13;0.50;;;21.50;30.80;;;;;;5031647;28;20391;-69
2022/02/06 06:58:29;;;;;;;1.15;0.70;;;21.50;30.70;;;;;;5032890;28;20465;-68
2022/02/06 07:03:35;;;;;;;1.40;0.80;;;21.50;30.80;;;;;;5032973;28;20502;-75
2022/02/06 07:06:02;;;;;;;1.27;0.70;;;21.50;31.10;;;;;;5033164;28;20743;-76
2022/02/06 07:08:27;;;;;;;1.30;0.73;;;21.40;30.90;;;;;;5033118;28;20418;-73
2022/02/06 07:10:53;;;;;;;2.20;1.00;;;21.40;30.50;;;;;;5032425;28;20944;-76
2022/02/06 07:13:21;;;;;;;1.60;0.80;;;21.30;30.70;;;;;;5032824;28;20399;-75
2022/02/06 07:15:47;;;;;;;3.15;0.95;;;21.30;31.40;;;;;;5032684;28;20478;-75
2022/02/06 07:18:13;;;;;;;3.92;0.93;;;21.30;31.30;;;;;;5032591;28;20403;-76
2022/02/06 07:20:39;;;;;;;2.15;0.80;;;21.40;31.60;;;;;;5031173;28;20766;-75
2022/02/06 07:23:08;;;;;;;1.60;0.88;;;21.30;31.90;;;;;;5031067;28;20445;-73
2022/02/06 07:25:34;;;;;;;2.60;0.90;;;21.20;31.70;;;;;;5031337;28;20403;-70
2022/02/06 07:28:00;;;;;;;2.47;0.98;;;21.30;31.60;;;;;;5031296;28;20395;-72
2022/02/06 07:30:26;;;;;;;2.97;1.02;;;21.40;32.00;;;;;;5032535;28;20386;-75
2022/02/06 07:32:52;;;;;;;4.88;0.90;;;21.40;32.40;;;;;;5031056;28;20407;-76
2022/02/06 07:35:18;;;;;;;2.05;1.00;;;21.50;32.60;;;;;;5030857;28;20391;-76
2022/02/06 07:37:54;;;;;;;2.70;0.90;;;21.50;32.70;;;;;;5032271;28;20430;-76
2022/02/06 07:40:20;;;;;;;3.33;1.10;;;21.60;32.90;;;;;;5032398;28;20498;-75
2022/02/06 07:42:46;;;;;;;2.60;0.80;;;21.60;32.10;;;;;;5030230;28;20998;-75
2022/02/06 07:45:13;;;;;;;3.60;1.07;;;21.60;32.40;;;;;;5030728;28;20482;-72
2022/02/06 07:47:42;;;;;;;7.03;1.20;;;21.60;32.80;;;;;;5031745;28;20468;-71
2022/02/06 07:50:08;;;;;;;4.32;1.60;;;21.60;33.20;;;;;;5031855;28;20399;-73
2022/02/06 07:52:34;;;;;;;2.55;1.23;;;21.90;31.90;;;;;;5033288;28;20448;-74
2022/02/06 07:55:00;;;;;;;4.80;1.45;;;22.20;31.30;;;;;;5031501;28;20391;-75
2022/02/06 07:57:26;;;;;;;3.13;1.23;;;22.30;31.70;;;;;;5031660;28;20391;-75
2022/02/06 07:59:52;;;;;;;3.53;1.33;;;22.40;32.00;;;;;;5032002;28;20448;-74
2022/02/06 08:02:18;;;;;;;3.67;1.30;;;22.50;32.00;;;;;;5031890;28;20415;-73
2022/02/06 08:04:46;;;;;;;4.18;1.35;;;22.50;32.00;;;;;;5029843;28;20395;-75
2022/02/06 08:07:12;;;;;;;3.75;1.38;;;22.40;32.00;;;;;;5030114;28;20390;-68
2022/02/06 08:12:11;;;;;;;3.47;1.10;;;22.30;32.90;;;;;;5031115;28;20474;-68
2022/02/06 08:17:15;;;;;;;3.33;1.20;;;22.20;31.90;;;;;;5031545;28;20402;-73
2022/02/06 08:19:43;;;;;;;2.45;0.98;;;22.20;32.60;;;;;;5031564;28;20490;-72
2022/02/06 08:22:09;;;;;;;3.42;1.00;;;22.10;32.50;;;;;;5031750;28;20434;-70
2022/02/06 08:24:35;;;;;;;1.90;0.90;;;22.10;32.60;;;;;;5031484;28;20815;-70
2022/02/06 08:27:00;;;;;;;3.77;1.00;;;22.10;33.00;;;;;;5028207;28;20425;-73
2022/02/06 08:29:26;;;;;;;1.65;0.80;;;22.10;32.90;;;;;;5028133;28;20494;-74
2022/02/06 08:31:52;;;;;;;2.67;0.90;;;22.10;33.00;;;;;;5026546;28;20393;-73
2022/02/06 08:34:19;;;;;;;1.63;0.80;;;22.10;32.60;;;;;;5028664;28;20897;-72
2022/02/06 08:36:44;;;;;;;2.10;0.80;;;22.10;32.40;;;;;;5030748;28;20478;-71
2022/02/06 08:39:10;;;;;;;2.42;0.88;;;22.00;32.60;;;;;;5013018;28;20848;-71
2022/02/06 08:41:36;;;;;;;2.63;0.80;;;22.10;32.50;;;;;;5021369;28;20395;-69
2022/02/06 08:44:03;;;;;;;2.75;0.90;;;22.10;32.50;;;;;;5018208;28;21011;-68
2022/02/06 08:46:29;;;;;;;6.78;1.10;;;21.90;32.70;;;;;;5016964;28;20476;-68
2022/02/06 08:48:55;;;;;;;7.27;1.33;;;21.80;32.00;;;;;;5020150;28;20498;-73
2022/02/06 08:51:21;;;;;;;4.20;0.95;;;21.80;31.20;;;;;;5009297;28;20396;-73
2022/02/06 08:53:47;;;;;;;5.20;1.15;;;21.80;31.20;;;;;;5011423;28;20399;-70
2022/02/06 08:56:13;;;;;;;3.80;1.07;;;21.90;32.10;;;;;;5024186;28;20385;-72
2022/02/06 08:58:39;;;;;;;3.05;1.00;;;21.90;31.70;;;;;;5022750;28;20434;-71
2022/02/06 09:01:05;;;;;;;4.55;1.10;;;22.00;31.80;;;;;;5029621;28;20747;-73
2022/02/06 09:03:31;;;;;;;5.63;1.20;;;22.00;31.70;;;;;;5029723;28;20426;-75
2022/02/06 09:05:57;;;;;;;3.25;0.90;;;21.90;31.70;;;;;;5030819;28;20778;-69
2022/02/06 09:08:22;;;;;;;6.97;1.20;;;21.80;32.10;;;;;;5019003;28;20478;-73
2022/02/06 09:10:48;;;;;;;3.77;0.80;;;21.90;32.40;;;;;;5021012;28;20388;-69
2022/02/06 09:13:15;;;;;;;5.35;0.90;;;21.90;32.40;;;;;;5023574;28;20399;-69
2022/02/06 09:15:40;;;;;;;5.03;0.93;;;22.00;32.50;;;;;;5016622;28;20391;-70
2022/02/06 09:18:07;;;;;;;3.40;0.88;;;22.00;32.50;;;;;;5017291;28;20443;-71
2022/02/06 09:20:33;;;;;;;4.40;0.85;;;22.10;32.50;;;;;;5012171;28;20399;-71
2022/02/06 09:23:02;;;;;;;3.13;0.90;;;22.10;32.30;;;;;;5021611;28;20998;-71
2022/02/06 09:25:28;;;;;;;2.63;0.80;;;22.20;32.20;;;;;;5018777;28;20379;-70
2022/02/06 09:27:54;;;;;;;2.15;0.85;;;22.20;32.10;;;;;;5025795;28;20422;-73
2022/02/06 09:30:25;;;;;;;1.70;0.73;;;22.20;32.00;;;;;;5025678;28;20526;-74
2022/02/06 09:35:17;;;;;;;2.50;0.77;;;22.40;31.90;;;;;;5014354;28;20385;-75
2022/02/06 09:37:43;;;;;;;2.03;0.80;;;22.50;31.70;;;;;;5012248;28;20404;-69
2022/02/06 09:40:12;;;;;;;2.57;0.80;;;22.50;31.60;;;;;;5016887;28;20892;-71
2022/02/06 09:42:38;;;;;;;2.92;0.68;;;22.60;31.40;;;;;;5014731;28;20411;-71
2022/02/06 09:45:06;;;;;;;2.80;1.00;;;22.70;31.30;;;;;;5018117;28;20399;-72
2022/02/06 09:47:32;;;;;;;2.80;0.70;;;22.80;31.20;;;;;;5022750;28;20406;-70
2022/02/06 09:49:58;;;;;;;2.05;0.70;;;22.80;31.10;;;;;;5032638;28;20395;-70
2022/02/06 09:52:25;;;;;;;1.63;0.60;;;22.90;31.00;;;;;;5034145;28;20477;-73
2022/02/06 09:55:07;;;;;;;1.80;0.80;;;23.00;30.80;;;;;;5032612;28;20465;-71
2022/02/06 09:57:50;;;;;;;2.30;0.80;;;23.10;30.60;;;;;;5034121;28;20391;-72
2022/02/06 10:00:17;;;;;;;1.93;0.70;;;23.20;31.20;;;;;;5034153;28;20383;-69
2022/02/06 10:02:47;;;;;;;1.17;0.60;;;23.30;30.50;;;;;;5032185;28;20412;-68
2022/02/06 10:05:15;;;;;;;1.75;0.57;;;23.40;30.30;;;;;;5033852;28;20403;-69
2022/02/06 10:07:51;;;;;;;1.50;0.82;;;23.50;30.40;;;;;;5031225;28;20406;-69
2022/02/06 10:10:18;;;;;;;1.50;0.60;;;23.60;30.20;;;;;;5025557;28;20397;-68
2022/02/06 10:12:45;;;;;;;1.60;0.75;;;23.60;30.10;;;;;;5028156;28;20403;-69
2022/02/06 10:15:19;;;;;;;1.33;0.68;;;23.70;30.00;;;;;;5016256;28;20915;-68
2022/02/06 10:17:47;;;;;;;2.22;0.77;;;23.70;30.00;;;;;;5016514;28;20413;-69
2022/02/06 10:20:16;;;;;;;0.90;0.50;;;23.70;30.00;;;;;;5017763;28;20400;-68
2022/02/06 10:23:06;;;;;;;1.40;0.60;;;23.70;30.00;;;;;;5024110;28;20448;-68
2022/02/06 10:25:29;;;;;;;1.77;0.70;;;23.70;30.00;;;;;;5027327;28;20391;-68
2022/02/06 10:30:38;;;;;;;0.95;0.60;;;23.90;30.00;;;;;;5016223;28;20407;-68
2022/02/06 10:33:15;;;;;;;2.50;0.60;;;24.00;30.00;;;;;;5018028;28;20622;-68
2022/02/06 10:35:47;;;;;;;1.25;0.55;;;24.00;29.90;;;;;;5020161;28;20404;-70
2022/02/06 10:38:23;;;;;;;1.85;0.60;;;24.00;29.90;;;;;;5025464;28;20914;-69
2022/02/06 10:41:18;;;;;;;1.25;0.60;;;24.10;29.50;;;;;;5025246;28;20432;-69
2022/02/06 10:43:58;;;;;;;10.43;1.37;;;24.10;29.20;;;;;;5027978;28;20487;-68
2022/02/06 10:46:26;;;;;;;9.73;1.23;;;24.10;29.10;;;;;;5018691;28;20399;-68
2022/02/06 10:48:55;;;;;;;8.02;1.33;;;24.10;29.20;;;;;;5009875;28;20397;-68
2022/02/06 10:51:44;;;;;;;7.30;0.90;;;24.20;29.20;;;;;;5011571;28;20430;-68
2022/02/06 10:54:24;;;;;;;6.32;1.02;;;24.30;29.30;;;;;;5028520;28;20403;-68
2022/02/06 10:57:10;;;;;;;10.15;1.30;;;24.30;29.40;;;;;;5017833;28;20392;-71
2022/02/06 10:59:53;;;;;;;5.68;1.20;;;24.30;29.20;;;;;;5015371;28;20507;-68
2022/02/06 11:02:35;;;;;;;5.20;1.17;;;24.40;29.10;;;;;;5021959;28;20461;-69
2022/02/06 11:05:07;;;;;;;3.83;0.85;;;24.40;29.20;;;;;;5010626;28;20389;-68
2022/02/06 11:07:33;;;;;;;4.30;0.90;;;24.50;29.10;;;;;;5020795;28;20410;-68
2022/02/06 11:10:13;;;;;;;4.38;0.80;;;24.60;29.10;;;;;;5027123;28;20395;-68
2022/02/06 11:12:49;;;;;;;2.30;0.70;;;24.60;29.20;;;;;;5026767;28;20400;-68
2022/02/06 11:15:28;;;;;;;2.97;0.70;;;24.60;29.10;;;;;;5027595;28;20387;-69
2022/02/06 11:18:24;;;;;;;3.90;0.73;;;24.70;29.00;;;;;;5027527;28;20407;-68
2022/02/06 11:20:57;;;;;;;3.28;0.70;;;24.80;29.10;;;;;;5027069;28;20517;-68
2022/02/06 11:23:43;;;;;;;3.88;0.75;;;24.70;29.10;;;;;;5030108;28;20454;-68
2022/02/06 11:26:10;;;;;;;4.20;0.88;;;24.90;29.00;;;;;;5029726;28;20399;-68
2022/02/06 11:28:36;;;;;;;1.80;0.60;;;24.90;29.00;;;;;;5030091;28;20395;-68
2022/02/06 11:31:02;;;;;;;4.95;0.90;;;24.90;28.90;;;;;;5028362;28;20440;-68
2022/02/06 11:33:28;;;;;;;4.68;0.82;;;25.00;29.10;;;;;;5029294;28;20427;-69
2022/02/06 11:35:58;;;;;;;5.90;1.00;;;25.10;28.90;;;;;;5030026;28;20410;-70
2022/02/06 11:44:34;;;;;;;3.60;0.70;;;25.10;28.70;;;;;;5029551;28;20418;-68
2022/02/06 11:47:18;;;;;;;4.10;0.70;;;25.20;28.60;;;;;;5027463;28;20430;-69
2022/02/06 11:49:50;;;;;;;3.58;0.63;;;25.20;28.40;;;;;;5027631;28;20943;-69
2022/02/06 11:52:16;;;;;;;2.65;0.73;;;25.20;28.40;;;;;;5028386;28;20867;-69
2022/02/06 11:54:52;;;;;;;3.22;0.60;;;25.30;28.60;;;;;;5028771;28;20486;-71
2022/02/06 12:00:08;;;;;;;4.32;0.77;;;25.30;28.90;;;;;;5032134;28;20401;-69
2022/02/06 12:02:46;;;;;;;3.05;0.80;;;25.40;28.60;;;;;;5030305;28;20431;-70
2022/02/06 12:05:29;;;;;;;5.40;1.02;;;25.40;28.70;;;;;;5029838;28;20398;-69
2022/02/06 12:08:01;;;;;;;5.85;1.25;;;25.40;29.10;;;;;;5031599;28;20379;-68
2022/02/06 12:10:33;;;;;;;5.10;1.00;;;25.40;28.80;;;;;;5030214;28;20445;-68
2022/02/06 12:13:22;;;;;;;5.28;0.82;;;25.50;28.90;;;;;;5029774;28;20395;-68
2022/02/06 12:16:01;;;;;;;3.63;1.10;;;25.50;29.20;;;;;;5029729;28;20901;-68
2022/02/06 12:18:29;;;;;;;6.13;1.25;;;25.60;29.40;;;;;;5031416;28;20883;-68
2022/02/06 12:20:58;;;;;;;5.60;1.60;;;25.60;29.40;;;;;;5029772;28;20436;-69
2022/02/06 12:23:54;;;;;;;5.43;1.65;;;25.60;29.10;;;;;;5031334;28;20488;-69
2022/02/06 12:26:40;;;;;;;3.60;1.20;;;25.60;29.50;;;;;;5030168;28;20522;-68
2022/02/06 12:29:11;;;;;;;2.70;1.15;;;25.60;29.50;;;;;;5030717;28;20899;-68
2022/02/06 12:31:59;;;;;;;4.32;1.27;;;25.60;29.40;;;;;;5029621;28;20390;-68
2022/02/06 12:36:54;;;;;;;4.67;1.20;;;25.60;29.50;;;;;;5031279;28;20508;-69
2022/02/06 12:37:27;;;;;;;7.45;1.70;;;25.50;29.20;;;;;;5030970;28;20387;-69
2022/02/06 12:39:57;;;;;;;8.40;1.65;;;25.50;29.70;;;;;;5029731;28;20473;-68
2022/02/06 12:42:34;;;;;;;5.80;1.40;;;25.50;29.70;;;;;;5029656;28;20467;-69
2022/02/06 12:45:03;;;;;;;5.47;1.38;;;25.50;29.50;;;;;;5030743;28;20401;-69
2022/02/06 12:47:30;;;;;;;3.22;1.10;;;25.40;29.50;;;;;;5031032;28;20398;-68
2022/02/06 12:49:56;;;;;;;3.97;1.17;;;25.30;29.60;;;;;;5031033;28;20489;-69
2022/02/06 12:52:22;;;;;;;3.38;1.15;;;25.30;29.60;;;;;;5029633;28;20379;-69
2022/02/06 12:54:48;;;;;;;3.45;1.10;;;25.20;29.40;;;;;;5029775;28;20395;-69
2022/02/06 12:57:19;;;;;;;2.83;0.83;;;25.20;29.50;;;;;;5030754;28;20898;-69
2022/02/06 12:59:45;;;;;;;3.95;1.00;;;25.10;29.70;;;;;;5031513;28;20890;-69
2022/02/06 13:02:12;;;;;;;3.13;1.00;;;25.10;29.70;;;;;;5029818;28;20402;-68
2022/02/06 13:04:43;;;;;;;6.65;1.20;;;25.10;29.90;;;;;;5024180;28;20460;-72
2022/02/06 13:07:11;;;;;;;3.42;0.85;;;25.00;30.10;;;;;;5014588;28;20389;-69
2022/02/06 13:09:42;;;;;;;3.90;0.82;;;24.90;30.10;;;;;;5011307;28;20446;-69
2022/02/06 13:14:52;;;;;;;6.20;0.90;;;24.90;29.80;;;;;;5011288;28;20396;-69
2022/02/06 13:26:06;;;;;;;2.65;0.85;;;24.80;29.70;;;;;;5011074;28;20812;-68
2022/02/06 13:38:52;;;;;;;2.88;0.88;;;25.10;30.00;;;;;;5010894;28;20381;-71
2022/02/06 13:41:23;;;;;;;1.70;0.68;;;24.60;29.80;;;;;;5010476;28;20409;-69
2022/02/06 13:43:51;;;;;;;2.47;0.60;;;24.60;29.80;;;;;;5014495;28;20471;-68
2022/02/06 13:46:22;;;;;;;1.67;0.70;;;24.50;29.80;;;;;;5012883;28;20504;-69
2022/02/06 13:48:49;;;;;;;2.42;0.70;;;24.50;29.80;;;;;;5012997;28;20472;-68
2022/02/06 13:51:16;;;;;;;2.95;0.70;;;24.40;29.80;;;;;;5013859;28;20428;-68
2022/02/06 13:53:58;;;;;;;2.58;0.70;;;24.40;29.90;;;;;;5014155;28;20952;-69
2022/02/06 13:56:24;;;;;;;3.33;0.95;;;24.30;29.90;;;;;;5013001;28;20397;-77
2022/02/06 13:59:03;;;;;;;1.88;0.63;;;24.30;29.90;;;;;;5013054;28;20392;-68
2022/02/06 14:01:47;;;;;;;2.53;0.70;;;24.30;29.90;;;;;;5014290;28;20467;-67
2022/02/06 14:04:19;;;;;;;2.13;0.60;;;24.20;30.00;;;;;;5012864;28;20532;-68
2022/02/06 14:06:53;;;;;;;2.10;0.70;;;24.20;30.00;;;;;;5013072;28;20403;-69
2022/02/06 14:09:33;;;;;;;3.03;1.05;;;24.20;30.00;;;;;;5013735;28;20407;-68
2022/02/06 14:11:59;;;;;;;6.93;0.93;;;24.20;30.20;;;;;;5013164;28;20393;-69
2022/02/06 14:14:27;;;;;;;3.40;1.00;;;24.00;30.70;;;;;;5014289;28;20488;-70
2022/02/06 14:16:56;;;;;;;2.57;0.83;;;24.00;31.20;;;;;;5013141;28;20534;-71
2022/02/06 14:19:32;;;;;;;3.67;0.98;;;24.00;31.20;;;;;;5012676;28;20477;-69
2022/02/06 14:21:58;;;;;;;4.53;0.93;;;23.90;32.10;;;;;;5012651;28;20908;-69
2022/02/06 14:24:23;;;;;;;4.30;1.00;;;24.00;32.10;;;;;;5012471;28;20425;-70
2022/02/06 14:27:03;;;;;;;4.43;0.90;;;23.90;31.70;;;;;;5013757;28;20385;-69
2022/02/06 14:29:30;;;;;;;4.47;1.00;;;24.00;31.60;;;;;;5013567;28;20400;-69
2022/02/06 14:32:22;;;;;;;3.00;0.90;;;24.00;31.50;;;;;;5013785;28;20397;-70
2022/02/06 14:35:09;;;;;;;2.00;0.90;;;24.00;31.40;;;;;;5013699;28;20388;-70
2022/02/06 14:37:58;;;;;;;3.42;1.05;;;24.00;31.20;;;;;;5013439;28;20448;-69
2022/02/06 14:40:41;;;;;;;3.85;0.90;;;24.00;31.50;;;;;;5013633;28;20409;-71
2022/02/06 14:43:14;;;;;;;2.70;1.00;;;24.00;31.20;;;;;;5012004;28;20420;-69
2022/02/06 14:45:49;;;;;;;2.33;0.80;;;24.00;31.20;;;;;;5013417;28;20828;-70
2022/02/06 14:48:15;;;;;;;2.08;0.70;;;23.90;31.00;;;;;;5013451;28;20405;-70
2022/02/06 14:50:46;;;;;;;3.22;0.85;;;23.90;31.10;;;;;;5011985;28;20757;-70
2022/02/06 14:53:13;;;;;;;3.37;0.70;;;23.90;31.20;;;;;;5012149;28;20446;-77
2022/02/06 14:55:41;;;;;;;1.75;0.73;;;23.90;30.90;;;;;;5013225;28;20389;-71
2022/02/06 14:58:07;;;;;;;1.52;0.65;;;23.90;31.10;;;;;;5013326;28;20400;-71
2022/02/06 15:00:33;;;;;;;2.53;0.70;;;23.90;31.60;;;;;;5013040;28;20381;-77
2022/02/06 15:02:59;;;;;;;1.85;0.77;;;23.80;31.00;;;;;;5012884;28;20816;-69
2022/02/06 15:05:24;;;;;;;2.45;0.80;;;23.80;30.90;;;;;;5012494;28;20423;-79
2022/02/06 15:07:50;;;;;;;2.55;0.80;;;23.70;30.80;;;;;;5013223;28;20389;-77
2022/02/06 15:10:16;;;;;;;3.90;0.80;;;23.70;31.00;;;;;;5011602;28;20393;-70
2022/02/06 15:12:42;;;;;;;2.80;0.97;;;23.70;30.90;;;;;;5012529;28;20757;-70
2022/02/06 15:15:09;;;;;;;4.65;1.10;;;23.60;31.40;;;;;;5012863;28;20872;-71
2022/02/06 15:17:35;;;;;;;8.98;1.20;;;23.60;32.10;;;;;;5012774;28;20492;-70
2022/02/06 15:20:00;;;;;;;5.23;1.07;;;23.50;33.10;;;;;;5012828;28;20480;-71
2022/02/06 15:22:26;;;;;;;5.03;1.30;;;23.50;32.80;;;;;;5012665;28;20397;-70
2022/02/06 15:24:52;;;;;;;4.47;1.13;;;23.50;34.90;;;;;;5012501;28;20404;-70
2022/02/06 15:27:17;;;;;;;3.65;1.10;;;23.60;34.80;;;;;;5012070;28;20388;-70
2022/02/06 15:29:43;;;;;;;4.87;1.10;;;23.60;35.20;;;;;;5013808;28;20412;-76
2022/02/06 15:32:09;;;;;;;9.45;1.15;;;23.50;35.90;;;;;;5012581;28;20385;-72
2022/02/06 15:34:35;;;;;;;9.10;1.20;;;23.50;36.10;;;;;;5013562;28;20405;-70
2022/02/06 15:37:03;;;;;;;4.95;1.20;;;23.50;35.30;;;;;;5013210;28;20398;-71
2022/02/06 15:39:38;;;;;;;7.77;1.10;;;23.40;33.90;;;;;;5013494;28;20483;-71
2022/02/06 15:42:08;;;;;;;6.53;1.00;;;23.60;34.50;;;;;;5012612;28;20393;-70
2022/02/06 15:44:34;;;;;;;7.93;1.30;;;23.40;34.20;;;;;;5011377;28;20420;-70
2022/02/06 15:47:00;;;;;;;4.30;1.30;;;23.50;34.50;;;;;;5010574;28;20508;-71
2022/02/06 15:49:27;;;;;;;12.98;1.77;;;23.40;34.40;;;;;;5014633;28;20399;-71